createdAt,value
2019-04-26T00:01:34.016Z,3.03
2019-04-26T00:04:04.378Z,3.17
2019-04-26T00:06:33.100Z,3.20
2019-04-26T00:09:03.600Z,2.73
2019-04-26T00:11:34.061Z,2.90
2019-04-26T00:14:06.970Z,3.03
2019-04-26T00:16:45.844Z,2.80
2019-04-26T00:19:14.452Z,2.80
2019-04-26T00:21:43.692Z,2.90
2019-04-26T00:24:13.090Z,2.87
2019-04-26T00:26:42.220Z,2.97
2019-04-26T00:29:11.380Z,2.50
2019-04-26T00:31:44.389Z,2.50
2019-04-26T00:34:15.405Z,2.67
2019-04-26T00:36:45.021Z,2.60
2019-04-26T00:39:14.343Z,2.37
2019-04-26T00:41:43.118Z,2.70
2019-04-26T00:44:12.214Z,2.33
2019-04-26T00:46:43.573Z,2.50
2019-04-26T00:49:14.054Z,2.90
2019-04-26T00:51:43.842Z,2.67
2019-04-26T00:54:14.081Z,3.20
2019-04-26T00:56:43.361Z,2.70
2019-04-26T00:59:15.524Z,2.70
2019-04-26T01:01:47.100Z,2.30
2019-04-26T01:04:16.796Z,3.17
2019-04-26T01:06:49.488Z,2.63
2019-04-26T01:09:19.483Z,3.17
2019-04-26T01:11:51.000Z,2.80
2019-04-26T01:14:20.693Z,2.90
2019-04-26T01:16:49.656Z,2.60
2019-04-26T01:19:18.598Z,2.33
2019-04-26T01:21:48.656Z,2.80
2019-04-26T01:24:18.243Z,2.50
2019-04-26T01:26:49.295Z,2.73
2019-04-26T01:29:21.696Z,2.90
2019-04-26T01:31:51.990Z,2.60
2019-04-26T01:34:20.551Z,2.97
2019-04-26T01:36:50.623Z,3.00
2019-04-26T01:39:21.004Z,2.90
2019-04-26T01:41:52.134Z,2.63
2019-04-26T01:44:41.823Z,2.87
2019-04-26T01:47:10.347Z,2.70
2019-04-26T01:49:40.878Z,2.77
2019-04-26T01:52:13.768Z,2.53
2019-04-26T01:54:48.194Z,2.70
2019-04-26T01:57:17.109Z,2.80
2019-04-26T01:59:48.638Z,2.60
2019-04-26T02:02:21.285Z,2.40
2019-04-26T02:04:52.577Z,3.03
2019-04-26T02:07:42.908Z,2.80
2019-04-26T02:10:23.382Z,2.37
2019-04-26T02:12:53.731Z,2.77
2019-04-26T02:15:34.488Z,2.47
2019-04-26T02:18:08.569Z,2.57
2019-04-26T02:20:45.807Z,2.70
2019-04-26T02:23:18.226Z,3.13
2019-04-26T02:25:49.267Z,2.83
2019-04-26T02:28:21.352Z,2.67
2019-04-26T02:30:56.199Z,2.57
2019-04-26T02:33:27.438Z,2.60
2019-04-26T02:35:58.934Z,2.50
2019-04-26T02:38:34.672Z,2.50
2019-04-26T02:41:06.554Z,2.47
2019-04-26T02:43:38.908Z,2.50
2019-04-26T02:46:13.720Z,2.50
2019-04-26T02:48:53.188Z,2.87
2019-04-26T02:51:24.497Z,2.50
2019-04-26T02:54:11.408Z,2.43
2019-04-26T02:56:47.871Z,2.43
2019-04-26T02:59:18.326Z,2.50
2019-04-26T03:01:55.769Z,2.53
2019-04-26T03:04:28.925Z,2.63
2019-04-26T03:07:03.327Z,2.27
2019-04-26T03:09:37.012Z,2.27
2019-04-26T03:12:10.765Z,2.53
2019-04-26T03:14:53.155Z,2.47
2019-04-26T03:17:25.574Z,2.40
2019-04-26T03:20:06.465Z,2.60
2019-04-26T03:22:54.237Z,2.53
2019-04-26T03:25:42.128Z,2.90
2019-04-26T03:28:16.048Z,2.53
2019-04-26T03:31:03.105Z,2.60
2019-04-26T03:33:54.225Z,3.07
2019-04-26T03:36:26.150Z,2.70
2019-04-26T03:39:25.845Z,2.60
2019-04-26T03:42:09.869Z,2.77
2019-04-26T03:44:44.761Z,2.73
2019-04-26T03:47:18.001Z,3.10
2019-04-26T03:49:58.461Z,3.10
2019-04-26T03:52:49.345Z,3.10
2019-04-26T03:55:28.877Z,3.13
2019-04-26T03:58:07.227Z,3.10
2019-04-26T04:00:55.076Z,2.97
2019-04-26T04:03:37.488Z,2.70
2019-04-26T04:06:14.569Z,2.90
2019-04-26T04:08:48.122Z,3.30
2019-04-26T04:11:19.602Z,3.50
2019-04-26T04:14:01.424Z,2.83
2019-04-26T04:16:33.347Z,2.70
2019-04-26T04:19:22.308Z,3.20
2019-04-26T04:21:57.047Z,3.00
2019-04-26T04:24:32.782Z,3.03
2019-04-26T04:27:05.613Z,3.00
2019-04-26T04:29:42.650Z,3.00
2019-04-26T04:32:23.441Z,3.30
2019-04-26T04:34:54.950Z,2.90
2019-04-26T04:37:28.863Z,3.30
2019-04-26T04:40:09.323Z,3.20
2019-04-26T04:42:45.796Z,3.17
2019-04-26T04:45:28.692Z,2.80
2019-04-26T04:48:07.823Z,2.60
2019-04-26T04:51:05.582Z,3.20
2019-04-26T04:53:51.713Z,2.83
2019-04-26T04:56:41.564Z,3.10
2019-04-26T04:59:22.532Z,2.87
2019-04-26T05:02:11.649Z,2.70
2019-04-26T05:05:15.242Z,2.47
2019-04-26T05:08:06.275Z,2.80
2019-04-26T05:10:34.327Z,3.20
2019-04-26T05:13:10.144Z,2.87
2019-04-26T05:15:48.533Z,2.70
2019-04-26T05:18:31.242Z,2.73
2019-04-26T05:21:13.542Z,2.47
2019-04-26T05:23:51.008Z,2.47
2019-04-26T05:26:41.514Z,2.57
2019-04-26T05:29:25.824Z,3.20
2019-04-26T05:32:14.804Z,2.93
2019-04-26T05:34:50.726Z,2.57
2019-04-26T05:37:47.831Z,2.53
2019-04-26T05:40:23.411Z,2.47
2019-04-26T05:43:22.439Z,2.20
2019-04-26T05:46:12.749Z,2.70
2019-04-26T05:49:03.781Z,2.43
2019-04-26T05:51:58.340Z,2.27
2019-04-26T05:54:42.972Z,2.53
2019-04-26T05:57:33.862Z,2.50
2019-04-26T06:00:22.490Z,2.77
2019-04-26T06:03:15.562Z,3.73
2019-04-26T06:05:49.754Z,5.30
2019-04-26T06:08:38.851Z,3.57
2019-04-26T06:11:21.431Z,2.40
2019-04-26T06:14:12.091Z,2.70
2019-04-26T06:16:47.974Z,2.20
2019-04-26T06:19:26.435Z,2.27
2019-04-26T06:22:02.820Z,2.73
2019-04-26T06:24:42.806Z,2.80
2019-04-26T06:27:50.658Z,2.70
2019-04-26T06:30:45.560Z,2.07
2019-04-26T06:33:24.145Z,2.55
2019-04-26T06:35:57.288Z,2.27
2019-04-26T06:38:44.041Z,2.37
2019-04-26T06:41:21.719Z,2.20
2019-04-26T06:44:03.330Z,2.40
2019-04-26T06:47:09.039Z,2.00
2019-04-26T06:49:57.625Z,2.10
2019-04-26T06:52:30.768Z,2.50
2019-04-26T06:55:08.167Z,2.17
2019-04-26T06:58:08.939Z,1.83
2019-04-26T07:00:57.574Z,1.80
2019-04-26T07:03:29.342Z,2.40
2019-04-26T07:06:01.095Z,1.97
2019-04-26T07:08:42.069Z,2.10
2019-04-26T07:11:29.830Z,2.30
2019-04-26T07:14:17.410Z,1.93
2019-04-26T07:17:15.814Z,2.10
2019-04-26T07:20:16.880Z,1.80
2019-04-26T07:22:57.450Z,2.00
2019-04-26T07:25:57.408Z,2.22
2019-04-26T07:28:37.524Z,2.10
2019-04-26T07:31:23.493Z,1.90
2019-04-26T07:34:45.523Z,2.17
2019-04-26T07:37:38.297Z,1.87
2019-04-26T07:40:40.288Z,1.80
2019-04-26T07:43:46.324Z,1.93
2019-04-26T07:46:42.344Z,1.60
2019-04-26T07:49:37.801Z,2.25
2019-04-26T07:52:32.280Z,1.80
2019-04-26T07:55:26.196Z,1.30
2019-04-26T07:58:33.249Z,1.77
2019-04-26T08:01:43.545Z,1.80
2019-04-26T08:04:20.118Z,1.80
2019-04-26T08:07:06.270Z,1.50
2019-04-26T08:09:59.854Z,1.80
2019-04-26T08:12:35.705Z,1.73
2019-04-26T08:15:24.957Z,2.13
2019-04-26T08:17:56.791Z,1.47
2019-04-26T08:20:57.930Z,1.90
2019-04-26T08:23:43.278Z,1.30
2019-04-26T08:26:17.534Z,1.63
2019-04-26T08:29:00.644Z,1.47
2019-04-26T08:31:37.231Z,1.50
2019-04-26T08:34:12.338Z,1.23
2019-04-26T08:36:48.065Z,1.50
2019-04-26T08:39:44.263Z,1.20
2019-04-26T08:42:11.808Z,1.30
2019-04-26T08:45:04.704Z,2.10
2019-04-26T08:47:40.275Z,1.50
2019-04-26T08:50:22.192Z,1.70
2019-04-26T08:52:57.893Z,1.50
2019-04-26T08:55:34.183Z,1.80
2019-04-26T08:58:08.473Z,2.13
2019-04-26T09:00:43.398Z,1.40
2019-04-26T09:03:32.479Z,1.27
2019-04-26T09:06:24.932Z,1.85
2019-04-26T09:09:19.667Z,1.90
2019-04-26T09:11:59.912Z,1.70
2019-04-26T09:14:39.966Z,1.80
2019-04-26T09:17:13.564Z,1.70
2019-04-26T09:19:53.741Z,2.47
2019-04-26T09:22:35.107Z,1.93
2019-04-26T09:25:24.726Z,2.20
2019-04-26T09:27:59.560Z,2.67
2019-04-26T09:30:44.873Z,1.50
2019-04-26T09:33:31.680Z,1.60
2019-04-26T09:36:13.768Z,1.80
2019-04-26T09:38:47.394Z,1.77
2019-04-26T09:41:26.602Z,1.67
2019-04-26T09:44:07.311Z,1.60
2019-04-26T09:46:54.173Z,1.87
2019-04-26T09:49:49.673Z,1.87
2019-04-26T09:52:29.018Z,1.60
2019-04-26T09:55:12.392Z,1.43
2019-04-26T09:57:46.477Z,1.63
2019-04-26T10:00:20.119Z,1.50
2019-04-26T10:03:05.610Z,1.50
2019-04-26T10:05:40.671Z,1.70
2019-04-26T10:08:29.418Z,1.50
2019-04-26T10:11:05.666Z,1.87
2019-04-26T10:13:42.302Z,1.50
2019-04-26T10:16:16.287Z,1.33
2019-04-26T10:18:59.389Z,1.70
2019-04-26T10:21:34.244Z,1.37
2019-04-26T10:24:16.953Z,1.90
2019-04-26T10:26:52.042Z,2.20
2019-04-26T10:29:26.761Z,1.33
2019-04-26T10:31:57.256Z,1.90
2019-04-26T10:37:25.678Z,1.60
2019-04-26T10:39:59.031Z,1.60
2019-04-26T10:42:32.358Z,2.90
2019-04-26T10:45:14.509Z,1.60
2019-04-26T10:47:53.443Z,1.80
2019-04-26T10:50:28.722Z,1.53
2019-04-26T10:53:12.690Z,1.50
2019-04-26T10:55:46.577Z,1.87
2019-04-26T10:58:40.902Z,1.30
2019-04-26T11:01:17.097Z,1.40
2019-04-26T11:03:48.428Z,1.20
2019-04-26T11:06:24.155Z,1.50
2019-04-26T11:08:51.697Z,1.83
2019-04-26T11:11:21.383Z,1.40
2019-04-26T11:13:57.505Z,1.50
2019-04-26T11:16:26.539Z,1.50
2019-04-26T11:19:01.263Z,1.37
2019-04-26T11:21:33.227Z,1.30
2019-04-26T11:24:19.577Z,1.23
2019-04-26T11:26:59.455Z,1.57
2019-04-26T11:29:30.239Z,1.30
2019-04-26T11:32:09.390Z,1.27
2019-04-26T11:34:46.099Z,1.30
2019-04-26T11:37:17.911Z,1.10
2019-04-26T11:40:00.796Z,1.10
2019-04-26T11:42:41.915Z,1.30
2019-04-26T11:45:14.628Z,5.47
2019-04-26T11:47:55.400Z,1.63
2019-04-26T11:50:19.947Z,1.27
2019-04-26T11:52:56.623Z,1.00
2019-04-26T11:55:36.211Z,1.00
2019-04-26T11:58:22.509Z,1.70
2019-04-26T12:00:57.279Z,0.83
2019-04-26T12:06:29.161Z,0.90
2019-04-26T12:09:01.588Z,1.00
2019-04-26T12:12:21.084Z,2.03
2019-04-26T12:14:53.265Z,0.87
2019-04-26T12:17:58.642Z,1.00
2019-04-26T12:20:26.927Z,1.47
2019-04-26T12:23:34.695Z,1.03
2019-04-26T12:26:07.948Z,1.00
2019-04-26T12:29:25.843Z,0.90
2019-04-26T12:31:53.752Z,1.17
2019-04-26T12:35:19.841Z,0.90
2019-04-26T12:37:54.701Z,1.10
2019-04-26T12:41:12.992Z,1.30
2019-04-26T12:43:47.580Z,1.00
2019-04-26T12:46:34.522Z,1.10
2019-04-26T12:49:12.649Z,0.90
2019-04-26T12:52:28.610Z,1.00
2019-04-26T12:55:00.041Z,0.90
2019-04-26T12:58:01.380Z,0.90
2019-04-26T13:00:53.254Z,1.00
2019-04-26T13:04:10.436Z,1.30
2019-04-26T13:06:44.227Z,0.93
2019-04-26T13:10:06.977Z,0.90
2019-04-26T13:12:52.536Z,0.90
2019-04-26T13:15:59.893Z,0.80
2019-04-26T13:18:32.920Z,0.90
2019-04-26T13:21:59.672Z,0.90
2019-04-26T13:24:30.125Z,1.10
2019-04-26T13:27:41.586Z,1.27
2019-04-26T13:30:12.444Z,0.80
2019-04-26T13:33:27.542Z,1.10
2019-04-26T13:36:15.318Z,1.20
2019-04-26T13:39:23.457Z,0.90
2019-04-26T13:42:09.512Z,0.80
2019-04-26T13:48:02.035Z,1.33
2019-04-26T13:51:31.183Z,0.97
2019-04-26T13:54:06.682Z,1.23
2019-04-26T13:57:15.306Z,1.10
2019-04-26T13:59:47.453Z,1.00
2019-04-26T14:03:00.281Z,1.27
2019-04-26T14:05:37.202Z,1.00
2019-04-26T14:08:38.411Z,1.13
2019-04-26T14:11:07.676Z,1.20
2019-04-26T14:14:12.470Z,1.10
2019-04-26T14:16:42.506Z,1.20
2019-04-26T14:19:49.443Z,1.03
2019-04-26T14:22:22.257Z,1.33
2019-04-26T14:25:41.389Z,1.13
2019-04-26T14:28:10.333Z,0.80
2019-04-26T14:31:31.333Z,1.10
2019-04-26T14:34:05.453Z,0.87
2019-04-26T14:36:46.056Z,1.27
2019-04-26T14:39:21.090Z,0.87
2019-04-26T14:41:58.419Z,0.90
2019-04-26T14:44:27.159Z,1.23
2019-04-26T14:47:47.254Z,1.10
2019-04-26T14:50:16.388Z,1.10
2019-04-26T14:53:13.695Z,1.27
2019-04-26T14:55:51.244Z,1.00
2019-04-26T14:59:16.296Z,0.90
2019-04-26T15:02:02.679Z,0.73
2019-04-26T15:04:58.147Z,1.10
2019-04-26T15:07:28.255Z,1.00
2019-04-26T15:09:58.055Z,1.20
2019-04-26T15:13:17.276Z,1.00
2019-04-26T15:15:44.482Z,1.00
2019-04-26T15:18:52.535Z,0.73
2019-04-26T15:21:27.360Z,1.00
2019-04-26T15:27:46.333Z,1.20
2019-04-26T15:31:05.683Z,1.30
2019-04-26T15:33:36.661Z,1.47
2019-04-26T15:43:27.232Z,1.27
2019-04-26T15:46:13.347Z,1.10
2019-04-26T15:49:37.408Z,1.20
2019-04-26T15:52:09.366Z,1.57
2019-04-26T15:55:18.731Z,1.43
2019-04-26T15:57:56.113Z,1.30
2019-04-26T16:00:58.801Z,1.20
2019-04-26T16:03:30.687Z,1.30
2019-04-26T16:06:41.981Z,1.07
2019-04-26T16:09:19.718Z,1.17
2019-04-26T16:12:33.524Z,1.00
2019-04-26T16:15:06.605Z,1.17
2019-04-26T16:18:10.580Z,1.07
2019-04-26T16:20:45.275Z,1.40
2019-04-26T16:23:55.289Z,1.47
2019-04-26T16:26:33.188Z,1.50
2019-04-26T16:29:58.300Z,1.53
2019-04-26T16:32:34.547Z,1.30
2019-04-26T16:35:22.417Z,1.53
2019-04-26T16:37:51.998Z,1.60
2019-04-26T16:40:55.276Z,1.80
2019-04-26T16:45:04.422Z,1.30
2019-04-26T16:46:02.124Z,1.50
2019-04-26T16:49:12.413Z,1.53
2019-04-26T16:51:46.622Z,1.70
2019-04-26T16:55:20.325Z,1.37
2019-04-26T16:57:55.006Z,1.40
2019-04-26T17:01:10.087Z,1.10
2019-04-26T17:03:45.129Z,1.20
2019-04-26T17:07:25.318Z,1.10
2019-04-26T17:09:59.596Z,1.20
2019-04-26T17:12:56.217Z,1.30
2019-04-26T17:15:30.318Z,1.57
2019-04-26T17:18:27.067Z,1.73
2019-04-26T17:21:06.265Z,1.23
2019-04-26T17:24:49.940Z,1.20
2019-04-26T17:27:25.290Z,1.30
2019-04-26T17:30:42.552Z,1.20
2019-04-26T17:33:24.142Z,1.67
2019-04-26T17:37:17.091Z,1.20
2019-04-26T17:39:25.826Z,1.03
2019-04-26T17:42:44.974Z,1.10
2019-04-26T17:48:49.066Z,1.50
2019-04-26T17:54:54.111Z,1.00
2019-04-26T18:00:46.582Z,0.90
2019-04-26T18:03:27.858Z,1.07
2019-04-26T18:06:30.087Z,1.20
2019-04-26T18:09:18.586Z,0.93
2019-04-26T18:14:55.843Z,1.27
2019-04-26T18:18:26.043Z,1.20
2019-04-26T18:21:07.300Z,1.20
2019-04-26T18:24:23.486Z,1.40
2019-04-26T18:26:59.346Z,1.20
2019-04-26T18:30:20.514Z,1.00
2019-04-26T18:32:49.752Z,1.00
2019-04-26T18:36:06.517Z,0.90
2019-04-26T18:38:43.144Z,1.00
2019-04-26T18:42:02.874Z,1.10
2019-04-26T18:44:43.320Z,1.80
2019-04-26T18:53:58.143Z,1.20
2019-04-26T18:56:33.721Z,1.07
2019-04-26T18:59:28.064Z,1.60
2019-04-26T19:02:18.611Z,1.30
2019-04-26T19:08:45.882Z,1.17
2019-04-26T19:11:22.488Z,1.50
2019-04-26T19:17:11.851Z,1.20
2019-04-26T19:22:53.338Z,1.60
2019-04-26T19:28:29.308Z,2.00
2019-04-26T19:34:01.849Z,1.43
2019-04-26T19:36:36.782Z,1.80
2019-04-26T19:39:28.697Z,2.07
2019-04-26T19:44:49.460Z,1.20
2019-04-26T19:50:52.687Z,1.40
2019-04-26T19:56:35.718Z,1.20
2019-04-26T19:59:12.084Z,1.20
2019-04-26T20:01:48.617Z,0.90
2019-04-26T20:07:17.694Z,1.10
2019-04-26T20:12:52.748Z,0.90
2019-04-26T20:15:57.391Z,0.90
2019-04-26T20:18:32.751Z,1.07
2019-04-26T20:24:02.790Z,0.90
2019-04-26T20:27:27.815Z,0.63
2019-04-26T20:29:17.388Z,0.67
2019-04-26T20:34:56.138Z,1.30
2019-04-26T20:40:25.367Z,1.50
2019-04-26T20:45:50.616Z,1.30
2019-04-26T20:48:15.317Z,1.60
2019-04-26T20:51:11.016Z,1.30
2019-04-26T20:53:43.654Z,1.87
2019-04-26T20:56:18.691Z,2.10
2019-04-26T20:58:53.812Z,2.30
2019-04-26T21:01:27.834Z,2.27
2019-04-26T21:04:38.107Z,2.00
2019-04-26T21:07:14.209Z,2.30
2019-04-26T21:09:45.540Z,2.20
2019-04-26T21:12:24.625Z,2.30
2019-04-26T21:14:57.080Z,2.30
2019-04-26T21:20:15.316Z,1.50
2019-04-26T21:22:48.431Z,1.53
2019-04-26T21:25:27.656Z,1.67
2019-04-26T21:28:14.441Z,1.37
2019-04-26T21:31:26.226Z,1.23
2019-04-26T21:34:00.735Z,1.53
2019-04-26T21:37:11.421Z,2.13
2019-04-26T21:39:47.654Z,1.47
2019-04-26T21:42:20.845Z,1.03
2019-04-26T21:44:53.234Z,1.17
2019-04-26T21:47:27.598Z,1.20
2019-04-26T21:52:48.280Z,1.30
2019-04-26T21:58:24.949Z,1.20
2019-04-26T22:03:40.113Z,1.03
2019-04-26T22:06:20.003Z,1.00
2019-04-26T22:08:58.877Z,1.20
2019-04-26T22:11:31.224Z,1.07
2019-04-26T22:14:13.154Z,1.33
2019-04-26T22:19:44.230Z,1.20
2019-04-26T22:25:19.286Z,1.30
2019-04-26T22:27:54.016Z,1.50
2019-04-26T22:40:48.465Z,1.20
2019-04-26T22:43:28.649Z,1.30
2019-04-26T22:46:49.629Z,1.23
2019-04-26T22:49:25.141Z,1.17
2019-04-26T22:52:06.320Z,1.30
2019-04-26T22:54:44.690Z,1.50
2019-04-26T23:00:20.014Z,1.20
2019-04-26T23:09:33.446Z,1.30
2019-04-26T23:12:27.986Z,1.13
2019-04-26T23:18:16.041Z,1.10
2019-04-26T23:20:49.304Z,1.10
2019-04-26T23:23:26.284Z,1.00
2019-04-26T23:25:57.337Z,1.10
2019-04-26T23:28:34.368Z,0.90
2019-04-26T23:31:07.945Z,1.00
2019-04-26T23:33:38.484Z,1.00
2019-04-26T23:36:13.639Z,1.03
2019-04-26T23:38:53.142Z,1.10
2019-04-26T23:44:23.147Z,1.10
2019-04-26T23:46:54.974Z,1.20
2019-04-26T23:49:33.452Z,1.00
2019-04-26T23:52:07.908Z,1.20
2019-04-26T23:57:36.317Z,1.20
